createdAt,value
2022-07-27T00:02:08.761Z,59.21
2022-07-27T00:04:37.772Z,59.53
2022-07-27T00:07:06.109Z,59.15
2022-07-27T00:09:33.786Z,59.08
2022-07-27T00:12:01.583Z,59.32
2022-07-27T00:14:29.266Z,59.89
2022-07-27T00:16:56.873Z,60.51
2022-07-27T00:19:24.671Z,60.54
2022-07-27T00:21:54.421Z,60.69
2022-07-27T00:24:22.060Z,61.36
2022-07-27T00:26:49.817Z,61.72
2022-07-27T00:29:17.511Z,62.02
2022-07-27T00:31:45.258Z,62.41
2022-07-27T00:34:12.890Z,61.85
2022-07-27T00:36:40.612Z,61.93
2022-07-27T00:39:09.907Z,62.41
2022-07-27T00:41:37.804Z,63.16
2022-07-27T00:44:06.786Z,63.63
2022-07-27T00:46:35.929Z,63.87
2022-07-27T00:49:03.610Z,63.06
2022-07-27T00:51:33.276Z,64.48
2022-07-27T00:54:00.973Z,64.66
2022-07-27T00:56:30.041Z,64.43
2022-07-27T00:58:58.240Z,63.68
2022-07-27T01:01:26.070Z,63.88
2022-07-27T01:03:53.746Z,63.91
2022-07-27T01:06:27.005Z,63.94
2022-07-27T01:09:15.823Z,64.19
2022-07-27T01:11:45.109Z,64.32
2022-07-27T01:14:14.116Z,63.92
2022-07-27T01:16:42.241Z,63.63
2022-07-27T01:19:11.458Z,63.78
2022-07-27T01:21:40.623Z,63.44
2022-07-27T01:24:08.896Z,63.42
2022-07-27T01:26:37.141Z,62.93
2022-07-27T01:29:05.525Z,62.50
2022-07-27T01:31:33.267Z,62.06
2022-07-27T01:34:01.598Z,62.22
2022-07-27T01:36:29.261Z,61.98
2022-07-27T01:38:58.302Z,61.76
2022-07-27T01:41:26.535Z,61.75
2022-07-27T01:43:54.227Z,61.87
2022-07-27T01:46:21.932Z,62.20
2022-07-27T01:48:49.703Z,62.76
2022-07-27T01:51:17.386Z,63.02
2022-07-27T01:53:45.050Z,62.94
2022-07-27T01:56:14.610Z,63.01
2022-07-27T01:58:43.568Z,63.13
2022-07-27T02:01:11.682Z,63.56
2022-07-27T02:03:39.841Z,64.44
2022-07-27T02:06:07.590Z,64.59
2022-07-27T02:08:37.010Z,64.71
2022-07-27T02:11:22.166Z,64.64
2022-07-27T02:13:51.205Z,65.14
2022-07-27T02:16:19.797Z,64.95
2022-07-27T02:18:48.738Z,64.68
2022-07-27T02:21:16.827Z,64.54
2022-07-27T02:23:46.780Z,64.20
2022-07-27T02:26:14.485Z,64.35
2022-07-27T02:28:42.334Z,64.34
2022-07-27T02:31:11.371Z,64.32
2022-07-27T02:33:39.038Z,64.44
2022-07-27T02:36:06.816Z,64.03
2022-07-27T02:38:34.503Z,63.71
2022-07-27T02:41:02.130Z,64.15
2022-07-27T02:43:31.801Z,64.62
2022-07-27T02:45:59.585Z,65.36
2022-07-27T02:48:28.626Z,66.20
2022-07-27T02:51:01.216Z,65.73
2022-07-27T02:53:29.261Z,66.23
2022-07-27T02:55:57.417Z,66.08
2022-07-27T02:58:25.361Z,66.11
2022-07-27T03:00:58.179Z,65.66
2022-07-27T03:03:35.961Z,65.61
2022-07-27T03:06:06.598Z,65.69
2022-07-27T03:08:34.342Z,65.33
2022-07-27T03:11:02.176Z,65.50
2022-07-27T03:13:29.937Z,65.41
2022-07-27T03:15:58.263Z,65.84
2022-07-27T03:18:26.209Z,66.12
2022-07-27T03:20:54.070Z,66.55
2022-07-27T03:23:24.215Z,66.69
2022-07-27T03:25:51.914Z,67.43
2022-07-27T03:28:19.529Z,67.66
2022-07-27T03:30:47.445Z,68.51
2022-07-27T03:33:15.150Z,69.30
2022-07-27T03:35:42.778Z,70.03
2022-07-27T03:38:11.478Z,70.33
2022-07-27T03:40:40.794Z,70.30
2022-07-27T03:43:08.660Z,69.69
2022-07-27T03:45:36.647Z,70.13
2022-07-27T03:48:04.441Z,70.05
2022-07-27T03:50:32.106Z,69.79
2022-07-27T03:52:59.740Z,68.45
2022-07-27T03:55:27.580Z,69.00
2022-07-27T03:57:56.596Z,70.26
2022-07-27T04:00:24.586Z,69.72
2022-07-27T04:02:52.774Z,70.08
2022-07-27T04:05:21.676Z,70.40
2022-07-27T04:07:54.692Z,70.08
2022-07-27T04:10:22.757Z,70.44
2022-07-27T04:12:50.545Z,71.34
2022-07-27T04:15:21.320Z,71.14
2022-07-27T04:17:56.035Z,71.38
2022-07-27T04:20:25.258Z,70.66
2022-07-27T04:22:52.904Z,70.75
2022-07-27T04:25:20.568Z,70.45
2022-07-27T04:27:48.340Z,71.66
2022-07-27T04:30:16.012Z,71.41
2022-07-27T04:32:44.927Z,70.79
2022-07-27T04:35:12.988Z,70.69
2022-07-27T04:37:40.675Z,70.31
2022-07-27T04:40:25.680Z,69.91
2022-07-27T04:42:53.257Z,70.16
2022-07-27T04:45:21.137Z,69.56
2022-07-27T04:47:50.069Z,69.98
2022-07-27T04:50:17.744Z,70.54
2022-07-27T04:52:45.658Z,69.96
2022-07-27T04:55:13.385Z,69.75
2022-07-27T04:57:41.869Z,69.78
2022-07-27T05:00:11.301Z,69.99
2022-07-27T05:02:40.417Z,69.29
2022-07-27T05:05:10.191Z,70.04
2022-07-27T05:07:37.769Z,69.86
2022-07-27T05:10:06.261Z,69.96
2022-07-27T05:12:33.856Z,70.11
2022-07-27T05:15:01.547Z,70.47
2022-07-27T05:17:29.154Z,69.88
2022-07-27T05:19:56.770Z,69.65
2022-07-27T05:22:25.711Z,70.17
2022-07-27T05:24:53.331Z,69.64
2022-07-27T05:27:20.953Z,69.99
2022-07-27T05:29:49.544Z,69.76
2022-07-27T05:32:17.288Z,69.35
2022-07-27T05:34:45.994Z,69.09
2022-07-27T05:37:13.941Z,68.53
2022-07-27T05:39:42.901Z,68.51
2022-07-27T05:42:10.712Z,68.24
2022-07-27T05:44:38.340Z,68.81
2022-07-27T05:47:06.564Z,68.25
2022-07-27T05:49:34.428Z,68.19
2022-07-27T05:52:02.166Z,67.75
2022-07-27T05:54:29.769Z,67.21
2022-07-27T05:56:59.840Z,67.00
2022-07-27T05:59:28.062Z,66.50
2022-07-27T06:01:55.646Z,66.01
2022-07-27T06:04:23.256Z,65.49
2022-07-27T06:07:08.424Z,65.98
2022-07-27T06:09:36.075Z,66.55
2022-07-27T06:12:05.183Z,66.92
2022-07-27T06:14:32.839Z,67.26
2022-07-27T06:17:00.575Z,66.76
2022-07-27T06:19:36.019Z,66.38
2022-07-27T06:22:04.374Z,66.46
2022-07-27T06:24:32.020Z,65.49
2022-07-27T06:26:59.619Z,65.57
2022-07-27T06:29:28.584Z,64.74
2022-07-27T06:31:56.276Z,64.25
2022-07-27T06:34:23.928Z,63.61
2022-07-27T06:36:52.959Z,63.38
2022-07-27T06:39:20.933Z,62.92
2022-07-27T06:41:48.914Z,63.20
2022-07-27T06:44:16.562Z,63.10
2022-07-27T06:46:45.610Z,63.32
2022-07-27T06:49:13.693Z,63.67
2022-07-27T06:51:41.940Z,63.66
2022-07-27T06:54:09.575Z,63.14
2022-07-27T06:56:38.117Z,63.10
2022-07-27T06:59:05.913Z,62.86
2022-07-27T07:01:33.666Z,62.42
2022-07-27T07:04:02.725Z,62.53
2022-07-27T07:06:30.411Z,62.45
2022-07-27T07:08:57.980Z,62.68
2022-07-27T07:11:25.629Z,61.80
2022-07-27T07:13:53.286Z,60.71
2022-07-27T07:16:20.957Z,59.89
2022-07-27T07:18:52.206Z,59.91
2022-07-27T07:21:21.946Z,59.01
2022-07-27T07:23:50.144Z,58.37
2022-07-27T07:26:17.762Z,58.21
2022-07-27T07:28:45.419Z,57.55
2022-07-27T07:31:13.079Z,57.92
2022-07-27T07:33:40.777Z,57.36
2022-07-27T07:36:13.369Z,56.59
2022-07-27T07:38:44.014Z,57.25
2022-07-27T07:41:11.744Z,56.80
2022-07-27T07:43:39.778Z,56.26
2022-07-27T07:46:08.534Z,55.01
2022-07-27T07:48:36.424Z,54.89
2022-07-27T07:51:04.193Z,53.65
2022-07-27T07:53:31.811Z,54.30
2022-07-27T07:56:00.837Z,52.75
2022-07-27T07:58:28.387Z,53.04
2022-07-27T08:00:56.178Z,52.87
2022-07-27T08:03:23.876Z,52.12
2022-07-27T08:05:51.564Z,51.54
2022-07-27T08:08:19.165Z,51.61
2022-07-27T08:10:47.900Z,50.55
2022-07-27T08:13:21.937Z,50.45
2022-07-27T08:15:50.559Z,50.32
2022-07-27T08:18:18.921Z,49.88
2022-07-27T08:20:46.514Z,50.34
2022-07-27T08:23:14.177Z,51.58
2022-07-27T08:28:10.172Z,51.36
2022-07-27T08:30:39.618Z,51.76
2022-07-27T08:33:07.322Z,52.52
2022-07-27T08:35:35.952Z,51.15
2022-07-27T08:38:05.990Z,52.37
2022-07-27T08:40:44.238Z,52.56
2022-07-27T08:43:18.888Z,52.61
2022-07-27T08:45:55.354Z,52.23
2022-07-27T08:48:24.853Z,51.95
2022-07-27T08:50:53.005Z,51.62
2022-07-27T08:53:22.247Z,52.51
2022-07-27T08:55:50.113Z,52.08
2022-07-27T08:58:18.381Z,51.95
2022-07-27T09:00:48.025Z,51.75
2022-07-27T09:03:20.517Z,51.33
2022-07-27T09:05:51.883Z,50.14
2022-07-27T09:08:23.966Z,50.90
2022-07-27T09:10:52.024Z,50.44
2022-07-27T09:13:21.990Z,49.63
2022-07-27T09:18:40.920Z,48.83
2022-07-27T09:21:11.187Z,49.31
2022-07-27T09:23:39.345Z,49.10
2022-07-27T09:26:29.329Z,49.36
2022-07-27T09:29:00.781Z,49.64
2022-07-27T09:31:28.612Z,49.07
2022-07-27T09:33:59.133Z,48.59
2022-07-27T09:36:28.778Z,48.05
2022-07-27T09:39:11.139Z,47.87
2022-07-27T09:41:45.866Z,48.34
2022-07-27T09:47:01.985Z,46.61
2022-07-27T09:49:33.212Z,47.45
2022-07-27T09:52:03.119Z,47.18
2022-07-27T09:54:44.213Z,46.65
2022-07-27T09:57:12.114Z,46.57
2022-07-27T09:59:39.885Z,47.96
2022-07-27T10:02:08.191Z,47.52
2022-07-27T10:04:37.205Z,46.44
2022-07-27T10:07:09.346Z,46.49
2022-07-27T10:09:40.385Z,45.60
2022-07-27T10:12:08.956Z,44.55
2022-07-27T10:14:36.526Z,43.88
2022-07-27T10:17:04.842Z,43.68
2022-07-27T10:19:41.810Z,42.82
2022-07-27T10:22:09.400Z,43.06
2022-07-27T10:24:37.431Z,43.57
2022-07-27T10:27:20.497Z,43.84
2022-07-27T10:29:48.923Z,43.16
2022-07-27T10:32:24.680Z,43.74
2022-07-27T10:34:54.088Z,44.37
2022-07-27T10:37:26.445Z,44.57
2022-07-27T10:40:15.974Z,44.56
2022-07-27T10:42:44.180Z,44.63
2022-07-27T10:45:13.742Z,44.78
2022-07-27T10:47:44.788Z,44.18
2022-07-27T10:50:30.704Z,44.35
2022-07-27T10:53:01.322Z,42.69
2022-07-27T10:55:58.768Z,44.08
2022-07-27T10:58:50.000Z,42.12
2022-07-27T11:01:19.624Z,42.34
2022-07-27T11:03:53.220Z,42.26
2022-07-27T11:06:37.547Z,40.83
2022-07-27T11:10:00.275Z,40.92
2022-07-27T11:12:01.293Z,40.76
2022-07-27T11:14:31.646Z,40.73
2022-07-27T11:17:33.465Z,41.47
2022-07-27T11:19:53.408Z,40.65
2022-07-27T11:22:53.597Z,40.58
2022-07-27T11:25:19.421Z,38.86
2022-07-27T11:27:48.517Z,38.69
2022-07-27T11:30:23.378Z,37.83
2022-07-27T11:32:51.182Z,36.84
2022-07-27T11:35:20.397Z,37.29
2022-07-27T11:38:01.338Z,38.15
2022-07-27T11:43:33.702Z,38.61
2022-07-27T11:46:13.268Z,38.76
2022-07-27T11:49:05.455Z,39.18
2022-07-27T11:51:34.426Z,39.39
2022-07-27T11:54:05.960Z,38.88
2022-07-27T11:56:35.598Z,38.39
2022-07-27T11:59:06.740Z,37.42
2022-07-27T12:01:36.408Z,36.15
2022-07-27T12:04:16.066Z,35.60
2022-07-27T12:06:46.296Z,36.73
2022-07-27T12:09:17.768Z,36.87
2022-07-27T12:11:51.051Z,37.13
2022-07-27T12:14:19.082Z,37.56
2022-07-27T12:16:47.203Z,37.23
2022-07-27T12:19:23.815Z,37.13
2022-07-27T12:21:55.364Z,37.61
2022-07-27T12:24:34.902Z,38.50
2022-07-27T12:27:06.748Z,37.40
2022-07-27T12:29:54.628Z,36.83
2022-07-27T12:32:22.875Z,35.15
2022-07-27T12:34:50.569Z,35.04
2022-07-27T12:37:18.335Z,34.46
2022-07-27T12:39:48.600Z,33.68
2022-07-27T12:42:16.590Z,32.72
2022-07-27T12:44:46.412Z,33.59
2022-07-27T12:47:31.493Z,33.71
2022-07-27T12:50:03.432Z,32.98
2022-07-27T12:52:31.248Z,33.46
2022-07-27T12:55:00.315Z,33.54
2022-07-27T12:57:54.193Z,33.75
2022-07-27T13:00:18.085Z,34.41
2022-07-27T13:02:46.610Z,34.29
2022-07-27T13:05:15.560Z,33.45
2022-07-27T13:07:45.989Z,32.16
2022-07-27T13:10:18.237Z,31.57
2022-07-27T13:12:46.840Z,29.40
2022-07-27T13:15:15.581Z,29.26
2022-07-27T13:17:43.716Z,29.36
2022-07-27T13:20:13.141Z,29.02
2022-07-27T13:22:41.851Z,28.68
2022-07-27T13:25:16.116Z,29.23
2022-07-27T13:27:46.990Z,28.42
2022-07-27T13:30:16.819Z,29.88
2022-07-27T13:32:46.478Z,30.05
2022-07-27T13:35:14.719Z,29.14
2022-07-27T13:37:42.454Z,27.49
2022-07-27T13:40:10.738Z,27.12
2022-07-27T13:42:38.761Z,27.55
2022-07-27T13:45:10.917Z,26.42
2022-07-27T13:47:41.044Z,27.10
2022-07-27T13:50:17.404Z,28.27
2022-07-27T13:52:46.505Z,28.52
2022-07-27T13:55:15.050Z,28.52
2022-07-27T13:57:42.930Z,28.22
2022-07-27T14:00:13.497Z,25.13
2022-07-27T14:02:41.980Z,24.35
2022-07-27T14:05:13.028Z,22.04
2022-07-27T14:07:42.489Z,20.61
2022-07-27T14:10:30.174Z,20.49
2022-07-27T14:12:59.357Z,19.65
2022-07-27T14:15:28.830Z,18.98
2022-07-27T14:17:56.421Z,18.15
2022-07-27T14:20:24.103Z,17.92
2022-07-27T14:22:51.912Z,17.20
2022-07-27T14:25:19.569Z,17.50
2022-07-27T14:27:47.205Z,16.49
2022-07-27T14:30:20.265Z,16.11
2022-07-27T14:32:50.315Z,15.80
2022-07-27T14:35:18.352Z,15.58
2022-07-27T14:37:46.513Z,15.36
2022-07-27T14:40:15.335Z,15.86
2022-07-27T14:42:43.213Z,16.10
2022-07-27T14:45:12.214Z,16.53
2022-07-27T14:47:39.887Z,17.20
2022-07-27T14:50:09.936Z,18.94
2022-07-27T14:52:37.978Z,19.13
2022-07-27T14:55:06.379Z,17.78
2022-07-27T14:57:34.134Z,17.08
2022-07-27T15:00:06.749Z,16.08
2022-07-27T15:02:34.599Z,15.96
2022-07-27T15:05:02.357Z,15.43
2022-07-27T15:07:31.396Z,15.23
2022-07-27T15:09:59.092Z,14.74
2022-07-27T15:12:27.008Z,14.04
2022-07-27T15:14:55.073Z,13.92
2022-07-27T15:17:22.749Z,14.62
2022-07-27T15:19:50.654Z,15.44
2022-07-27T15:22:18.663Z,17.15
2022-07-27T15:24:47.732Z,17.86
2022-07-27T15:27:15.467Z,19.19
2022-07-27T15:29:43.185Z,20.26
2022-07-27T15:32:10.793Z,20.33
2022-07-27T15:34:39.060Z,20.24
2022-07-27T15:37:07.491Z,17.08
2022-07-27T15:39:37.386Z,15.93
2022-07-27T15:42:07.636Z,15.25
2022-07-27T15:44:36.157Z,15.52
2022-07-27T15:47:04.107Z,14.85
2022-07-27T15:49:31.863Z,14.86
2022-07-27T15:51:59.792Z,14.74
2022-07-27T15:54:31.516Z,16.15
2022-07-27T15:57:01.206Z,17.82
2022-07-27T15:59:30.313Z,18.45
2022-07-27T16:01:58.624Z,18.68
2022-07-27T16:04:27.147Z,17.32
2022-07-27T16:06:54.869Z,15.77
2022-07-27T16:09:22.546Z,14.92
2022-07-27T16:11:50.214Z,14.82
2022-07-27T16:14:17.876Z,14.62
2022-07-27T16:16:46.932Z,14.34
2022-07-27T16:19:14.998Z,14.17
2022-07-27T16:21:54.685Z,14.19
2022-07-27T16:24:24.455Z,13.95
2022-07-27T16:26:52.145Z,12.70
2022-07-27T16:29:19.886Z,12.62
2022-07-27T16:31:49.117Z,12.36
2022-07-27T16:34:16.813Z,11.80
2022-07-27T16:36:44.865Z,12.49
2022-07-27T16:39:12.703Z,11.95
2022-07-27T16:41:40.485Z,12.76
2022-07-27T16:44:08.134Z,11.96
2022-07-27T16:46:35.895Z,12.94
2022-07-27T16:49:05.326Z,13.88
2022-07-27T16:51:33.052Z,14.61
2022-07-27T16:54:00.805Z,14.74
2022-07-27T16:56:28.477Z,14.79
2022-07-27T16:58:56.152Z,13.53
2022-07-27T17:01:26.460Z,13.34
2022-07-27T17:03:56.150Z,12.92
2022-07-27T17:06:28.650Z,13.30
2022-07-27T17:08:56.469Z,12.88
2022-07-27T17:11:24.869Z,13.09
2022-07-27T17:13:59.432Z,13.47
2022-07-27T17:16:28.035Z,12.86
2022-07-27T17:18:56.235Z,13.00
2022-07-27T17:21:25.921Z,12.87
2022-07-27T17:23:53.585Z,12.73
2022-07-27T17:26:24.284Z,12.85
2022-07-27T17:28:53.222Z,13.12
2022-07-27T17:31:21.882Z,12.77
2022-07-27T17:33:50.217Z,13.03
2022-07-27T17:36:18.460Z,14.24
2022-07-27T17:38:48.240Z,13.05
2022-07-27T17:41:23.735Z,13.98
2022-07-27T17:43:52.595Z,15.19
2022-07-27T17:46:20.477Z,14.51
2022-07-27T17:48:48.507Z,14.91
2022-07-27T17:51:16.334Z,15.56
2022-07-27T17:53:44.445Z,15.77
2022-07-27T17:56:13.510Z,15.49
2022-07-27T17:58:42.753Z,16.54
2022-07-27T18:01:10.556Z,16.69
2022-07-27T18:03:47.500Z,17.17
2022-07-27T18:06:15.239Z,17.64
2022-07-27T18:08:44.778Z,17.95
2022-07-27T18:11:14.682Z,17.74
2022-07-27T18:13:42.553Z,18.26
2022-07-27T18:16:11.990Z,18.57
2022-07-27T18:18:40.699Z,18.87
2022-07-27T18:21:08.596Z,19.53
2022-07-27T18:23:36.603Z,19.88
2022-07-27T18:26:04.727Z,21.22
2022-07-27T18:28:39.501Z,22.83
2022-07-27T18:31:09.532Z,24.11
2022-07-27T18:33:37.828Z,25.63
2022-07-27T18:36:06.172Z,26.68
2022-07-27T18:38:34.071Z,27.80
2022-07-27T18:41:02.808Z,28.98
2022-07-27T18:43:30.478Z,29.69
2022-07-27T18:45:59.626Z,29.90
2022-07-27T18:48:27.430Z,30.66
2022-07-27T18:50:55.151Z,31.62
2022-07-27T18:53:22.846Z,32.56
2022-07-27T18:55:55.635Z,33.57
2022-07-27T18:58:24.026Z,34.41
2022-07-27T19:00:51.670Z,35.23
2022-07-27T19:03:21.381Z,35.86
2022-07-27T19:05:50.938Z,36.01
2022-07-27T19:08:20.705Z,36.85
2022-07-27T19:10:48.386Z,36.82
2022-07-27T19:13:16.012Z,38.10
2022-07-27T19:15:44.782Z,37.09
2022-07-27T19:18:12.437Z,37.92
2022-07-27T19:20:41.410Z,39.10
2022-07-27T19:23:09.146Z,39.58
2022-07-27T19:25:36.776Z,40.13
2022-07-27T19:28:05.296Z,39.09
2022-07-27T19:30:33.251Z,40.33
2022-07-27T19:33:01.218Z,40.52
2022-07-27T19:35:29.126Z,41.47
2022-07-27T19:37:58.356Z,41.17
2022-07-27T19:43:14.933Z,42.24
2022-07-27T19:45:43.238Z,42.21
2022-07-27T19:48:11.752Z,42.12
2022-07-27T19:50:39.661Z,42.68
2022-07-27T19:53:09.169Z,42.90
2022-07-27T19:55:36.857Z,43.96
2022-07-27T19:58:04.652Z,44.48
2022-07-27T20:00:32.406Z,45.18
2022-07-27T20:03:01.202Z,45.92
2022-07-27T20:05:29.039Z,46.51
2022-07-27T20:07:56.760Z,46.78
2022-07-27T20:10:26.179Z,47.08
2022-07-27T20:12:53.837Z,47.92
2022-07-27T20:15:22.452Z,48.21
2022-07-27T20:17:50.626Z,48.22
2022-07-27T20:20:18.298Z,48.17
2022-07-27T20:22:46.050Z,48.22
2022-07-27T20:25:14.799Z,48.92
2022-07-27T20:27:43.881Z,48.95
2022-07-27T20:30:14.422Z,48.98
2022-07-27T20:32:42.044Z,49.60
2022-07-27T20:35:09.812Z,49.63
2022-07-27T20:37:38.020Z,49.74
2022-07-27T20:40:07.442Z,50.12
2022-07-27T20:42:35.261Z,50.37
2022-07-27T20:45:11.368Z,50.26
2022-07-27T20:47:39.454Z,51.04
2022-07-27T20:50:09.024Z,50.35
2022-07-27T20:52:36.950Z,50.67
2022-07-27T20:55:05.365Z,51.10
2022-07-27T20:57:32.956Z,51.14
2022-07-27T21:00:00.574Z,51.10
2022-07-27T21:02:29.590Z,50.55
2022-07-27T21:04:57.265Z,50.13
2022-07-27T21:07:26.669Z,50.55
2022-07-27T21:09:54.282Z,51.02
2022-07-27T21:12:21.894Z,50.60
2022-07-27T21:14:49.775Z,50.13
2022-07-27T21:17:17.469Z,50.67
2022-07-27T21:19:46.414Z,49.70
2022-07-27T21:22:14.077Z,49.71
2022-07-27T21:24:40.917Z,50.33
2022-07-27T21:27:08.960Z,50.61
2022-07-27T21:29:36.575Z,51.80
2022-07-27T21:32:04.442Z,51.40
2022-07-27T21:34:32.079Z,50.29
2022-07-27T21:37:01.026Z,51.06
2022-07-27T21:39:28.920Z,51.68
2022-07-27T21:42:01.714Z,51.34
2022-07-27T21:44:30.088Z,51.21
2022-07-27T21:46:57.939Z,51.44
2022-07-27T21:49:34.044Z,51.42
2022-07-27T21:52:03.824Z,51.68
2022-07-27T21:54:31.457Z,51.53
2022-07-27T21:56:59.146Z,51.28
2022-07-27T21:59:26.755Z,51.09
2022-07-27T22:01:54.402Z,50.82
2022-07-27T22:04:22.089Z,50.28
2022-07-27T22:06:49.731Z,50.64
2022-07-27T22:09:20.031Z,51.26
2022-07-27T22:11:47.769Z,51.22
2022-07-27T22:14:16.102Z,51.43
2022-07-27T22:16:44.248Z,51.25
2022-07-27T22:19:11.950Z,51.52
2022-07-27T22:21:39.557Z,51.62
2022-07-27T22:24:07.694Z,52.27
2022-07-27T22:26:36.671Z,52.10
2022-07-27T22:29:04.739Z,52.09
2022-07-27T22:31:32.468Z,51.82
2022-07-27T22:34:00.122Z,51.96
2022-07-27T22:36:27.721Z,51.86
2022-07-27T22:38:55.694Z,51.13
2022-07-27T22:41:23.374Z,50.82
2022-07-27T22:43:53.224Z,50.71
2022-07-27T22:46:25.309Z,50.50
2022-07-27T22:48:53.515Z,51.26
2022-07-27T22:51:21.710Z,51.76
2022-07-27T22:53:49.315Z,51.31
2022-07-27T22:56:17.054Z,51.58
2022-07-27T22:58:44.624Z,51.99
2022-07-27T23:01:46.546Z,51.60
2022-07-27T23:04:01.140Z,51.95
2022-07-27T23:06:28.748Z,51.13
2022-07-27T23:08:56.648Z,51.31
2022-07-27T23:11:24.292Z,51.09
2022-07-27T23:13:51.911Z,51.03
2022-07-27T23:16:20.974Z,51.06
2022-07-27T23:18:48.647Z,51.25
2022-07-27T23:21:16.338Z,51.22
2022-07-27T23:23:53.706Z,50.54
2022-07-27T23:26:22.955Z,50.84
2022-07-27T23:28:54.157Z,50.83
2022-07-27T23:31:23.787Z,51.71
2022-07-27T23:33:51.394Z,51.40
2022-07-27T23:36:19.052Z,51.56
2022-07-27T23:38:46.800Z,51.81
2022-07-27T23:41:15.477Z,51.98
2022-07-27T23:43:44.776Z,52.68
2022-07-27T23:46:12.576Z,52.48
2022-07-27T23:48:41.609Z,52.85
2022-07-27T23:51:09.686Z,53.14
2022-07-27T23:53:37.295Z,53.46
2022-07-27T23:56:05.195Z,53.26
2022-07-27T23:58:32.790Z,53.16
